Terminal Aerodrome Forecast
Issued by NWS

Home | Current Version | Previous Version | Text Only | Print | Product List | Glossary On
Versions: 1 2 3 4 5 6 7 8 9 10 11 12 13 14 15 16 17 18 19 20 21
708
FTUS44 KBMX 281421 AAB
TAFANB
TAF AMD
KANB 281421Z 2814/2912 25008KT P6SM BKN007 BKN015
     FM281600 23010KT P6SM BKN040
     FM282100 22010KT P6SM BKN040
     FM290100 19006KT P6SM VCTS BKN040CB=

USA.gov is the U.S. government's official web portal to all federal, state and local government web resources and services.